Pittsburgh, Pennsylvania
Traffic Map
Current Weather Conditions
Pittsburgh, Pennsylvania
Overcast
Overcast
56°
Feels Like: 56°
Wind Chill: 56° Ceiling: 10000
Heat Index: 56° Visibility: 10mi
Dew Point: 42° Wind: 10mph
Humidity: 60% Direction: 210° (SSW)
Pressure: 29.93in Gusts: 0mph
Raw Report DataKAGC 251453Z AUTO 21009KT 10SM FEW035 OVC100 13/06 A2993 RMK AO2 SLP141 T01330056 58009 TSNO
Traffic Incident Summary
Active as of:
Severity:
Category:
InformationThere was an issue retrieving the traffic information for this location. Please try a different location or try again shortly.
Advertisements
Track Severe Weather on mobile